Time;durP1;ratioP1;P1;durP2;ratioP2;P2;SDS_P1;SDS_P2;PMS_P1;PMS_P2;Temp;Humidity;BMP_temperature;BMP_pressure;BME280_temperature;BME280_humidity;BME280_pressure;Samples;Min_cycle;Max_cycle;Signal;HPM_P1;HPM_P2
2022/03/06 00:01:52;0.00;0.00;0.62;0.00;0.00;0.62;1.90;1.50;;;22.70;21.70;;;;;;2253194;61;20376;-63
2022/03/06 00:04:20;0.00;0.00;0.62;0.00;0.00;0.62;2.73;1.53;;;22.70;21.70;;;;;;2253979;61;20399;-64
2022/03/06 00:06:47;0.00;0.00;0.62;0.00;0.00;0.62;2.50;1.57;;;22.70;21.80;;;;;;2253673;61;20357;-62
2022/03/06 00:09:13;0.00;0.00;0.62;0.00;0.00;0.62;2.00;1.50;;;22.80;21.80;;;;;;2253193;61;20610;-65
2022/03/06 00:11:39;0.00;0.00;0.62;0.00;0.00;0.62;2.00;1.63;;;22.70;21.80;;;;;;2253562;61;20456;-60
2022/03/06 00:14:06;0.00;0.00;0.62;0.00;0.00;0.62;2.27;1.60;;;22.70;21.80;;;;;;2253453;61;20348;-61
2022/03/06 00:16:32;0.00;0.00;0.62;0.00;0.00;0.62;1.60;1.30;;;22.70;21.80;;;;;;2253248;61;20379;-62
2022/03/06 00:18:58;0.00;0.00;0.62;0.00;0.00;0.62;2.00;1.50;;;22.70;21.80;;;;;;2253795;61;20360;-60
2022/03/06 00:21:26;0.00;0.00;0.62;0.00;0.00;0.62;2.07;1.40;;;22.70;21.80;;;;;;2253483;61;20368;-65
2022/03/06 00:23:52;0.00;0.00;0.62;0.00;0.00;0.62;1.80;1.27;;;22.70;21.80;;;;;;2253258;61;20357;-61
2022/03/06 00:26:19;0.00;0.00;0.62;0.00;0.00;0.62;1.80;1.50;;;22.70;21.90;;;;;;2253735;61;20395;-66
2022/03/06 00:28:45;0.00;0.00;0.62;0.00;0.00;0.62;2.57;1.60;;;22.70;21.90;;;;;;2253458;61;20353;-65
2022/03/06 00:31:12;0.00;0.00;0.62;0.00;0.00;0.62;1.63;1.30;;;22.70;21.90;;;;;;2253126;61;20364;-65
2022/03/06 00:33:38;0.00;0.00;0.62;0.00;0.00;0.62;2.10;1.80;;;22.70;21.90;;;;;;2253361;61;20749;-65
2022/03/06 00:36:05;0.00;0.00;0.62;0.00;0.00;0.62;3.03;2.00;;;22.70;21.80;;;;;;2252812;61;20384;-65
2022/03/06 00:38:33;0.00;0.00;0.62;0.00;0.00;0.62;2.07;1.60;;;22.70;21.80;;;;;;2253172;61;20905;-65
2022/03/06 00:40:59;0.00;0.00;0.62;0.00;0.00;0.62;2.80;2.10;;;22.70;21.70;;;;;;2253356;61;20372;-66
2022/03/06 00:43:26;0.00;0.00;0.62;0.00;0.00;0.62;2.30;1.70;;;22.70;21.70;;;;;;2253445;61;20373;-64
2022/03/06 00:45:52;0.00;0.00;0.62;0.00;0.00;0.62;1.80;1.50;;;22.70;21.70;;;;;;2252987;61;20675;-63
2022/03/06 00:48:18;0.00;0.00;0.62;0.00;0.00;0.62;2.87;1.90;;;22.70;21.70;;;;;;2253835;61;20357;-63
2022/03/06 00:50:44;0.00;0.00;0.62;0.00;0.00;0.62;2.30;1.50;;;22.70;21.70;;;;;;2253404;61;20356;-64
2022/03/06 00:53:11;0.00;0.00;0.62;0.00;0.00;0.62;1.70;1.37;;;22.70;21.70;;;;;;2252895;61;20372;-65
2022/03/06 00:55:38;0.00;0.00;0.62;0.00;0.00;0.62;2.20;1.60;;;22.60;21.70;;;;;;2253613;61;20468;-63
2022/03/06 00:58:09;0.00;0.00;0.62;0.00;0.00;0.62;1.70;1.50;;;22.70;21.70;;;;;;2253291;61;20693;-66
2022/03/06 01:00:37;0.00;0.00;0.62;0.00;0.00;0.62;1.83;1.43;;;22.60;21.70;;;;;;2253204;61;20361;-65
2022/03/06 01:03:05;0.00;0.00;0.62;0.00;0.00;0.62;2.60;1.37;;;22.60;21.70;;;;;;2253615;61;20382;-63
2022/03/06 01:05:32;0.00;0.00;0.62;0.00;0.00;0.62;2.30;1.50;;;22.60;21.70;;;;;;2253245;61;20725;-64
2022/03/06 01:07:58;0.00;0.00;0.62;0.00;0.00;0.62;1.90;1.50;;;22.60;21.70;;;;;;2252956;61;20364;-63
2022/03/06 01:10:25;0.00;0.00;0.62;0.00;0.00;0.62;2.30;1.47;;;22.70;21.80;;;;;;2253648;61;20472;-66
2022/03/06 01:12:53;0.00;0.00;0.62;0.00;0.00;0.62;2.17;1.80;;;22.60;21.70;;;;;;2252910;61;20426;-67
2022/03/06 01:15:19;0.00;0.00;0.62;0.00;0.00;0.62;2.50;1.93;;;22.60;21.60;;;;;;2252992;61;20658;-62
2022/03/06 01:17:46;0.00;0.00;0.62;0.00;0.00;0.62;2.67;2.00;;;22.60;21.60;;;;;;2253735;61;20723;-64
2022/03/06 01:20:12;0.00;0.00;0.62;0.00;0.00;0.62;3.07;2.23;;;22.60;21.50;;;;;;2253325;61;20356;-65
2022/03/06 01:22:38;0.00;0.00;0.62;0.00;0.00;0.62;3.07;2.50;;;22.60;21.50;;;;;;2253207;61;20372;-66
2022/03/06 01:25:06;0.00;0.00;0.62;0.00;0.00;0.62;3.17;2.87;;;22.60;21.40;;;;;;2254198;61;20434;-65
2022/03/06 01:27:32;0.00;0.00;0.62;0.00;0.00;0.62;3.03;2.73;;;22.60;21.30;;;;;;2254039;61;20419;-66
2022/03/06 01:30:00;0.00;0.00;0.62;0.00;0.00;0.62;3.37;3.07;;;22.60;21.30;;;;;;2253975;61;20404;-66
2022/03/06 01:32:26;0.00;0.00;0.62;0.00;0.00;0.62;3.63;3.23;;;22.60;21.20;;;;;;2253982;61;20380;-63
2022/03/06 01:34:52;0.00;0.00;0.62;0.00;0.00;0.62;3.93;3.60;;;22.60;21.20;;;;;;2254243;61;20364;-66
2022/03/06 01:37:18;0.00;0.00;0.62;0.00;0.00;0.62;3.80;3.00;;;22.60;21.10;;;;;;2253839;61;20624;-64
2022/03/06 01:39:44;0.00;0.00;0.62;0.00;0.00;0.62;4.20;3.17;;;22.50;21.00;;;;;;2254140;61;20363;-63
2022/03/06 01:42:10;0.00;0.00;0.62;0.00;0.00;0.62;4.10;3.70;;;22.50;20.90;;;;;;2253356;61;20747;-65
2022/03/06 01:44:37;0.00;0.00;0.62;0.00;0.00;0.62;4.67;4.17;;;22.50;20.90;;;;;;2253992;61;20381;-65
2022/03/06 01:47:05;0.00;0.00;0.62;0.00;0.00;0.62;4.03;3.53;;;22.50;20.80;;;;;;2254123;61;20403;-64
2022/03/06 01:49:31;0.00;0.00;0.62;0.00;0.00;0.62;4.03;3.50;;;22.50;20.80;;;;;;2254004;61;20364;-63
2022/03/06 01:51:58;0.00;0.00;0.62;0.00;0.00;0.62;5.93;3.83;;;22.50;20.80;;;;;;2253615;61;20377;-63
2022/03/06 01:54:24;0.00;0.00;0.62;0.00;0.00;0.62;3.90;3.43;;;22.40;20.60;;;;;;2253992;61;20607;-65
2022/03/06 01:56:50;0.00;0.00;0.62;0.00;0.00;0.62;4.10;3.50;;;22.40;20.60;;;;;;2254164;61;20353;-64
2022/03/06 01:59:17;0.00;0.00;0.62;0.00;0.00;0.62;4.47;4.07;;;22.40;20.60;;;;;;2253803;61;20357;-64
2022/03/06 02:01:43;0.00;0.00;0.62;0.00;0.00;0.62;4.73;4.10;;;22.40;20.60;;;;;;2253841;61;20396;-64
2022/03/06 02:04:10;0.00;0.00;0.62;0.00;0.00;0.62;4.37;3.83;;;22.40;20.50;;;;;;2254353;61;20407;-62
2022/03/06 02:06:38;0.00;0.00;0.62;0.00;0.00;0.62;4.97;4.47;;;22.30;20.90;;;;;;2253429;61;20360;-65
2022/03/06 02:09:04;0.00;0.00;0.62;0.00;0.00;0.62;4.47;4.07;;;22.30;20.40;;;;;;2253931;61;20395;-64
2022/03/06 02:11:31;0.00;0.00;0.62;0.00;0.00;0.62;4.60;4.20;;;22.30;20.40;;;;;;2254144;61;20356;-63
2022/03/06 02:13:59;0.00;0.00;0.62;0.00;0.00;0.62;4.40;3.70;;;22.20;20.30;;;;;;2253404;61;20384;-66
2022/03/06 02:16:25;0.00;0.00;0.62;0.00;0.00;0.62;4.90;4.17;;;22.30;20.40;;;;;;2253865;61;20720;-66
2022/03/06 02:18:51;0.00;0.00;0.62;0.00;0.00;0.62;5.40;4.47;;;22.30;20.40;;;;;;2254504;61;20364;-65
2022/03/06 02:21:18;0.00;0.00;0.62;0.00;0.00;0.62;4.90;4.40;;;22.20;20.30;;;;;;2253388;61;20353;-64
2022/03/06 02:23:45;0.00;0.00;0.62;0.00;0.00;0.62;4.97;4.57;;;22.20;20.30;;;;;;2253852;61;20449;-63
2022/03/06 02:26:11;0.00;0.00;0.62;0.00;0.00;0.62;4.00;3.60;;;22.10;20.20;;;;;;2254087;61;20384;-64
2022/03/06 02:28:44;0.00;0.00;0.62;0.00;0.00;0.62;5.70;4.53;;;22.10;20.20;;;;;;2253532;61;20353;-64
2022/03/06 02:31:12;0.00;0.00;0.62;0.00;0.00;0.62;4.90;4.10;;;22.10;20.30;;;;;;2253299;61;20367;-65
2022/03/06 02:33:38;0.00;0.00;0.62;0.00;0.00;0.62;4.17;3.77;;;22.10;20.20;;;;;;2253678;61;20380;-66
2022/03/06 02:36:05;0.00;0.00;0.62;0.00;0.00;0.62;4.37;3.97;;;22.10;20.20;;;;;;2253426;61;20353;-66
2022/03/06 02:38:34;0.00;0.00;0.62;0.00;0.00;0.62;4.70;4.20;;;22.10;20.20;;;;;;2253793;61;20353;-65
2022/03/06 02:41:00;0.00;0.00;0.62;0.00;0.00;0.62;4.50;4.10;;;22.00;20.20;;;;;;2254037;61;20360;-61
2022/03/06 02:43:26;0.00;0.00;0.62;0.00;0.00;0.62;4.40;3.60;;;22.00;20.70;;;;;;2253002;61;20721;-65
2022/03/06 02:45:52;0.00;0.00;0.62;0.00;0.00;0.62;4.27;3.87;;;22.00;20.20;;;;;;2253658;61;20423;-65
2022/03/06 02:48:19;0.00;0.00;0.62;0.00;0.00;0.62;5.43;4.77;;;21.90;20.10;;;;;;2254111;61;20359;-64
2022/03/06 02:50:45;0.00;0.00;0.62;0.00;0.00;0.62;5.23;4.57;;;21.90;20.10;;;;;;2253477;61;20357;-65
2022/03/06 02:53:12;0.00;0.00;0.62;0.00;0.00;0.62;5.03;4.40;;;21.90;20.10;;;;;;2253057;61;20739;-62
2022/03/06 02:55:40;0.00;0.00;0.62;0.00;0.00;0.62;4.80;4.30;;;21.90;20.10;;;;;;2254096;61;20575;-63
2022/03/06 02:58:06;0.00;0.00;0.62;0.00;0.00;0.62;5.27;4.77;;;21.90;20.10;;;;;;2253405;61;20360;-62
2022/03/06 03:00:32;0.00;0.00;0.62;0.00;0.00;0.62;5.93;5.10;;;21.90;20.10;;;;;;2253704;61;20360;-64
2022/03/06 03:02:58;0.00;0.00;0.62;0.00;0.00;0.62;4.87;3.87;;;21.80;20.10;;;;;;2253949;61;20372;-64
2022/03/06 03:05:25;0.00;0.00;0.62;0.00;0.00;0.62;4.63;4.10;;;21.80;20.10;;;;;;2253314;61;20384;-63
2022/03/06 03:07:52;0.00;0.00;0.62;0.00;0.00;0.62;4.37;3.80;;;21.80;20.10;;;;;;2253698;61;20353;-66
2022/03/06 03:10:22;0.00;0.00;0.62;0.00;0.00;0.62;5.33;4.20;;;21.80;20.00;;;;;;2254031;61;20364;-65
2022/03/06 03:12:50;0.00;0.00;0.62;0.00;0.00;0.62;4.97;4.10;;;21.70;20.00;;;;;;2253256;61;20451;-63
2022/03/06 03:15:17;0.00;0.00;0.62;0.00;0.00;0.62;4.80;4.30;;;21.70;20.00;;;;;;2253701;61;20357;-64
2022/03/06 03:17:44;0.00;0.00;0.62;0.00;0.00;0.62;4.43;4.00;;;21.70;20.00;;;;;;2253977;61;20353;-62
2022/03/06 03:20:12;0.00;0.00;0.62;0.00;0.00;0.62;5.67;4.40;;;21.70;20.10;;;;;;2253349;61;20656;-63
2022/03/06 03:22:39;0.00;0.00;0.62;0.00;0.00;0.62;5.60;4.07;;;21.70;20.00;;;;;;2253515;61;20607;-63
2022/03/06 03:25:07;0.00;0.00;0.62;0.00;0.00;0.62;6.90;4.27;;;21.60;20.00;;;;;;2254117;61;20387;-63
2022/03/06 03:27:34;0.00;0.00;0.62;0.00;0.00;0.62;4.10;3.70;;;21.60;20.00;;;;;;2253327;61;20374;-66
2022/03/06 03:30:02;0.00;0.00;0.62;0.00;0.00;0.62;4.77;4.13;;;21.60;19.90;;;;;;2253650;61;20364;-64
2022/03/06 03:32:28;0.00;0.00;0.62;0.00;0.00;0.62;5.67;4.10;;;21.60;19.90;;;;;;2253389;61;20394;-64
2022/03/06 03:34:54;0.00;0.00;0.62;0.00;0.00;0.62;4.20;3.53;;;21.50;19.80;;;;;;2253267;61;20357;-62
2022/03/06 03:37:20;0.00;0.00;0.62;0.00;0.00;0.62;6.10;4.20;;;21.50;20.30;;;;;;2253632;61;20399;-63
2022/03/06 03:39:47;0.00;0.00;0.62;0.00;0.00;0.62;3.90;3.50;;;21.50;19.80;;;;;;2254007;61;20367;-64
2022/03/06 03:42:13;0.00;0.00;0.62;0.00;0.00;0.62;4.70;3.67;;;21.50;19.80;;;;;;2253080;61;20408;-64
2022/03/06 03:44:39;0.00;0.00;0.62;0.00;0.00;0.62;4.07;3.50;;;21.50;19.80;;;;;;2253452;61;20384;-64
2022/03/06 03:47:07;0.00;0.00;0.62;0.00;0.00;0.62;3.93;3.50;;;21.40;19.80;;;;;;2253729;61;20357;-63
2022/03/06 03:49:34;0.00;0.00;0.62;0.00;0.00;0.62;4.63;3.53;;;21.40;19.80;;;;;;2253310;61;20451;-63
2022/03/06 03:52:00;0.00;0.00;0.62;0.00;0.00;0.62;4.67;3.60;;;21.40;19.80;;;;;;2253352;61;20399;-66
2022/03/06 03:54:26;0.00;0.00;0.62;0.00;0.00;0.62;4.00;3.50;;;21.40;19.80;;;;;;2253892;61;20357;-65
2022/03/06 03:56:52;0.00;0.00;0.62;0.00;0.00;0.62;3.50;3.20;;;21.40;19.80;;;;;;2253045;61;20352;-62
2022/03/06 03:59:18;0.00;0.00;0.62;0.00;0.00;0.62;5.73;3.97;;;21.30;19.70;;;;;;2253617;61;20397;-64
2022/03/06 04:01:44;0.00;0.00;0.62;0.00;0.00;0.62;4.40;3.70;;;21.30;19.70;;;;;;2253861;61;20629;-63
2022/03/06 04:04:12;0.00;0.00;0.62;0.00;0.00;0.62;4.00;3.40;;;21.30;19.80;;;;;;2253220;61;20400;-66
2022/03/06 04:06:38;0.00;0.00;0.62;0.00;0.00;0.62;4.13;3.73;;;21.30;19.80;;;;;;2253367;61;20448;-65
2022/03/06 04:09:04;0.00;0.00;0.62;0.00;0.00;0.62;3.57;3.10;;;21.30;19.80;;;;;;2253901;61;20403;-63
2022/03/06 04:11:30;0.00;0.00;0.62;0.00;0.00;0.62;3.43;3.10;;;21.20;19.80;;;;;;2252894;61;20353;-61
2022/03/06 04:13:56;0.00;0.00;0.62;0.00;0.00;0.62;3.90;3.27;;;21.20;19.80;;;;;;2253421;61;20359;-62
2022/03/06 04:16:22;0.00;0.00;0.62;0.00;0.00;0.62;3.23;2.93;;;21.20;19.80;;;;;;2253809;61;20364;-64
2022/03/06 04:18:48;0.00;0.00;0.62;0.00;0.00;0.62;4.77;3.40;;;21.20;19.80;;;;;;2253130;61;20364;-64
2022/03/06 04:21:16;0.00;0.00;0.62;0.00;0.00;0.62;3.70;3.30;;;21.20;19.90;;;;;;2253353;61;20379;-63
2022/03/06 04:23:42;0.00;0.00;0.62;0.00;0.00;0.62;4.33;3.40;;;21.20;19.90;;;;;;2253853;61;20705;-62
2022/03/06 04:26:08;0.00;0.00;0.62;0.00;0.00;0.62;4.17;3.20;;;21.20;19.90;;;;;;2252924;61;20377;-63
2022/03/06 04:28:35;0.00;0.00;0.62;0.00;0.00;0.62;4.33;3.53;;;21.10;19.80;;;;;;2252959;61;20357;-64
2022/03/06 04:31:01;0.00;0.00;0.62;0.00;0.00;0.62;4.27;3.87;;;21.10;19.80;;;;;;2253767;61;20364;-65
2022/03/06 04:33:27;0.00;0.00;0.62;0.00;0.00;0.62;4.73;3.47;;;21.10;19.80;;;;;;2252567;61;20733;-64
2022/03/06 04:35:53;0.00;0.00;0.62;0.00;0.00;0.62;3.90;3.50;;;21.10;19.80;;;;;;2253453;61;20468;-65
2022/03/06 04:38:20;0.00;0.00;0.62;0.00;0.00;0.62;3.97;3.57;;;21.10;19.80;;;;;;2253809;61;20372;-64
2022/03/06 04:40:47;0.00;0.00;0.62;0.00;0.00;0.62;3.90;3.60;;;21.00;19.70;;;;;;2253027;61;20392;-62
2022/03/06 04:43:13;0.00;0.00;0.62;0.00;0.00;0.62;4.57;3.40;;;21.00;19.70;;;;;;2253337;61;20376;-64
2022/03/06 04:45:40;0.00;0.00;0.62;0.00;0.00;0.62;4.30;3.80;;;21.00;19.70;;;;;;2253099;61;20579;-66
2022/03/06 04:48:06;0.00;0.00;0.62;0.00;0.00;0.62;4.57;3.53;;;21.00;19.70;;;;;;2253317;61;20581;-66
2022/03/06 04:50:32;0.00;0.00;0.62;0.00;0.00;0.62;4.10;3.60;;;21.00;19.70;;;;;;2253276;61;20353;-62
2022/03/06 04:52:58;0.00;0.00;0.62;0.00;0.00;0.62;4.03;3.63;;;21.00;19.70;;;;;;2253569;61;20451;-65
2022/03/06 04:55:26;0.00;0.00;0.62;0.00;0.00;0.62;4.83;4.20;;;21.00;19.70;;;;;;2253228;61;20566;-66
2022/03/06 04:57:52;0.00;0.00;0.62;0.00;0.00;0.62;5.03;3.30;;;20.90;19.60;;;;;;2253048;61;20365;-65
2022/03/06 05:00:18;0.00;0.00;0.62;0.00;0.00;0.62;4.50;3.80;;;20.90;19.60;;;;;;2253789;61;20356;-63
2022/03/06 05:02:44;0.00;0.00;0.62;0.00;0.00;0.62;3.90;3.60;;;20.90;19.60;;;;;;2253147;61;20380;-64
2022/03/06 05:05:10;0.00;0.00;0.62;0.00;0.00;0.62;4.20;3.80;;;20.90;19.60;;;;;;2253126;61;20633;-64
2022/03/06 05:07:37;0.00;0.00;0.62;0.00;0.00;0.62;4.23;3.73;;;20.90;19.60;;;;;;2253692;61;20581;-64
2022/03/06 05:10:11;0.00;0.00;0.62;0.00;0.00;0.62;4.07;3.67;;;20.80;19.60;;;;;;2253255;61;20625;-66
2022/03/06 05:12:41;0.00;0.00;0.62;0.00;0.00;0.62;5.43;4.20;;;20.80;19.60;;;;;;2252985;61;20383;-64
2022/03/06 05:15:10;0.00;0.00;0.62;0.00;0.00;0.62;4.10;3.70;;;20.80;19.60;;;;;;2253591;61;20352;-64
2022/03/06 05:17:37;0.00;0.00;0.62;0.00;0.00;0.62;4.00;3.60;;;20.80;19.60;;;;;;2253219;61;20353;-62
2022/03/06 05:20:05;0.00;0.00;0.62;0.00;0.00;0.62;4.30;3.50;;;20.80;19.70;;;;;;2253130;61;20615;-64
2022/03/06 05:22:31;0.00;0.00;0.62;0.00;0.00;0.62;5.17;3.83;;;20.80;19.60;;;;;;2252850;61;20388;-64
2022/03/06 05:24:58;0.00;0.00;0.62;0.00;0.00;0.62;3.70;3.40;;;20.80;19.60;;;;;;2253180;61;20383;-64
2022/03/06 05:27:25;0.00;0.00;0.62;0.00;0.00;0.62;4.80;4.17;;;20.70;19.60;;;;;;2253103;61;20361;-65
2022/03/06 05:29:52;0.00;0.00;0.62;0.00;0.00;0.62;3.70;3.30;;;20.80;19.70;;;;;;2253673;61;20352;-63
2022/03/06 05:32:18;0.00;0.00;0.62;0.00;0.00;0.62;3.90;3.20;;;20.70;19.60;;;;;;2253047;61;20380;-65
2022/03/06 05:34:45;0.00;0.00;0.62;0.00;0.00;0.62;4.70;3.20;;;20.70;19.60;;;;;;2253164;61;20351;-65
2022/03/06 05:37:11;0.00;0.00;0.62;0.00;0.00;0.62;3.17;2.87;;;20.70;19.60;;;;;;2253586;61;20357;-64
2022/03/06 05:39:37;0.00;0.00;0.62;0.00;0.00;0.62;4.20;3.30;;;20.70;19.60;;;;;;2252782;61;20646;-64
2022/03/06 05:42:04;0.00;0.00;0.62;0.00;0.00;0.62;3.73;3.23;;;20.60;19.50;;;;;;2252920;61;20454;-65
2022/03/06 05:44:30;0.00;0.00;0.62;0.00;0.00;0.62;3.57;2.90;;;20.70;19.60;;;;;;2253541;61;20388;-65
2022/03/06 05:46:58;0.00;0.00;0.62;0.00;0.00;0.62;4.07;3.13;;;20.60;19.50;;;;;;2253126;61;20356;-65
2022/03/06 05:49:24;0.00;0.00;0.62;0.00;0.00;0.62;4.30;2.87;;;20.60;19.60;;;;;;2253181;61;20364;-66
2022/03/06 05:51:50;0.00;0.00;0.62;0.00;0.00;0.62;3.80;3.10;;;20.60;19.60;;;;;;2253457;61;20663;-66
2022/03/06 05:54:16;0.00;0.00;0.62;0.00;0.00;0.62;3.90;2.70;;;20.60;19.60;;;;;;2253287;61;20677;-63
2022/03/06 05:56:42;0.00;0.00;0.62;0.00;0.00;0.62;3.63;3.20;;;20.60;19.60;;;;;;2252858;61;20375;-65
2022/03/06 05:59:09;0.00;0.00;0.62;0.00;0.00;0.62;3.70;3.03;;;20.60;19.60;;;;;;2253584;61;20385;-66
2022/03/06 06:01:35;0.00;0.00;0.62;0.00;0.00;0.62;3.00;2.70;;;20.50;19.60;;;;;;2253089;61;20476;-61
2022/03/06 06:04:03;0.00;0.00;0.62;0.00;0.00;0.62;3.67;3.27;;;20.50;19.50;;;;;;2252344;61;20752;-64
2022/03/06 06:06:29;0.00;0.00;0.62;0.00;0.00;0.62;3.37;2.80;;;20.50;19.50;;;;;;2253443;61;20447;-65
2022/03/06 06:08:55;0.00;0.00;0.62;0.00;0.00;0.62;4.43;2.97;;;20.50;19.60;;;;;;2253173;61;20364;-64
2022/03/06 06:11:22;0.00;0.00;0.62;0.00;0.00;0.62;2.93;2.57;;;20.50;19.60;;;;;;2253484;61;20718;-63
2022/03/06 06:13:48;0.00;0.00;0.62;0.00;0.00;0.62;3.10;2.80;;;20.50;19.60;;;;;;2253545;61;20380;-65
2022/03/06 06:16:15;0.00;0.00;0.62;0.00;0.00;0.62;3.93;3.10;;;20.50;19.60;;;;;;2253877;61;20349;-65
2022/03/06 06:18:41;0.00;0.00;0.62;0.00;0.00;0.62;4.23;3.17;;;20.40;19.50;;;;;;2253083;61;20379;-66
2022/03/06 06:21:10;0.00;0.00;0.62;0.00;0.00;0.62;3.43;2.80;;;20.50;19.60;;;;;;2254010;61;20399;-65
2022/03/06 06:23:36;0.00;0.00;0.62;0.00;0.00;0.62;3.00;2.40;;;20.40;19.50;;;;;;2253892;61;20376;-67
2022/03/06 06:26:03;0.00;0.00;0.62;0.00;0.00;0.62;3.43;2.47;;;20.40;19.50;;;;;;2253569;61;20384;-66
2022/03/06 06:28:29;0.00;0.00;0.62;0.00;0.00;0.62;4.10;2.77;;;20.40;19.50;;;;;;2254020;61;20388;-65
2022/03/06 06:30:55;0.00;0.00;0.62;0.00;0.00;0.62;4.60;3.10;;;20.40;19.50;;;;;;2253802;61;20353;-66
2022/03/06 06:33:21;0.00;0.00;0.62;0.00;0.00;0.62;3.43;2.93;;;20.40;19.50;;;;;;2253619;61;20377;-64
2022/03/06 06:35:47;0.00;0.00;0.62;0.00;0.00;0.62;3.17;2.70;;;20.40;19.50;;;;;;2253347;61;20391;-64
2022/03/06 06:38:15;0.00;0.00;0.62;0.00;0.00;0.62;4.00;2.97;;;20.30;19.50;;;;;;2253882;61;20376;-64
2022/03/06 06:40:41;0.00;0.00;0.62;0.00;0.00;0.62;3.30;2.60;;;20.30;19.50;;;;;;2253271;61;20436;-63
2022/03/06 06:43:08;0.00;0.00;0.62;0.00;0.00;0.62;2.67;2.43;;;20.30;19.50;;;;;;2253761;61;20389;-63
2022/03/06 06:45:34;0.00;0.00;0.62;0.00;0.00;0.62;2.90;2.60;;;20.30;19.50;;;;;;2253640;61;20376;-65
2022/03/06 06:48:01;0.00;0.00;0.62;0.00;0.00;0.62;6.10;2.60;;;20.30;19.50;;;;;;2253744;61;20353;-64
2022/03/06 06:50:29;0.00;0.00;0.62;0.00;0.00;0.62;2.80;2.50;;;20.30;19.60;;;;;;2253875;61;20357;-65
2022/03/06 06:52:55;0.00;0.00;0.62;0.00;0.00;0.62;3.00;2.53;;;20.30;19.60;;;;;;2253811;61;20384;-63
2022/03/06 06:55:22;0.00;0.00;0.62;0.00;0.00;0.62;2.87;2.60;;;20.30;19.60;;;;;;2253594;61;20349;-64
2022/03/06 06:57:49;0.00;0.00;0.62;0.00;0.00;0.62;3.00;2.70;;;20.30;19.60;;;;;;2253860;61;20383;-64
2022/03/06 07:00:16;0.00;0.00;0.62;0.00;0.00;0.62;3.80;2.80;;;20.30;19.60;;;;;;2253944;61;20399;-64
2022/03/06 07:02:42;0.00;0.00;0.62;0.00;0.00;0.62;4.13;3.03;;;20.20;19.50;;;;;;2253437;61;20717;-65
2022/03/06 07:05:09;0.00;0.00;0.62;0.00;0.00;0.62;3.50;3.10;;;20.30;19.50;;;;;;2253782;61;20380;-63
2022/03/06 07:07:36;0.00;0.00;0.62;0.00;0.00;0.62;3.17;2.70;;;20.20;19.50;;;;;;2254153;61;20364;-63
2022/03/06 07:10:03;0.00;0.00;0.62;0.00;0.00;0.62;3.20;2.47;;;20.20;19.50;;;;;;2253424;61;20375;-66
2022/03/06 07:12:31;0.00;0.00;0.62;0.00;0.00;0.62;2.40;2.20;;;20.20;19.50;;;;;;2253688;61;20408;-66
2022/03/06 07:14:57;0.00;0.00;0.62;0.00;0.00;0.62;3.57;2.53;;;20.20;19.50;;;;;;2253975;61;20467;-63
2022/03/06 07:17:23;0.00;0.00;0.62;0.00;0.00;0.62;3.20;2.37;;;20.20;19.50;;;;;;2253335;61;20361;-64
2022/03/06 07:19:49;0.00;0.00;0.62;0.00;0.00;0.62;3.40;2.50;;;20.10;19.50;;;;;;2253941;61;20349;-64
2022/03/06 07:22:15;0.00;0.00;0.62;0.00;0.00;0.62;4.10;2.73;;;20.10;19.50;;;;;;2254063;61;20387;-64
2022/03/06 07:24:41;0.00;0.00;0.62;0.00;0.00;0.62;3.07;2.60;;;20.10;19.50;;;;;;2253413;61;20363;-65
2022/03/06 07:27:07;0.00;0.00;0.62;0.00;0.00;0.62;3.03;2.70;;;20.10;19.50;;;;;;2253731;61;20396;-61
2022/03/06 07:29:35;0.00;0.00;0.62;0.00;0.00;0.62;4.57;3.30;;;20.10;19.40;;;;;;2253935;61;20444;-64
2022/03/06 07:32:01;0.00;0.00;0.62;0.00;0.00;0.62;3.03;2.30;;;20.10;19.40;;;;;;2253258;61;20639;-65
2022/03/06 07:34:27;0.00;0.00;0.62;0.00;0.00;0.62;3.50;2.60;;;20.10;19.30;;;;;;2253184;61;20352;-63
2022/03/06 07:36:53;0.00;0.00;0.62;0.00;0.00;0.62;3.20;2.30;;;20.10;19.30;;;;;;2253935;61;20353;-65
2022/03/06 07:39:20;0.00;0.00;0.62;0.00;0.00;0.62;2.77;2.30;;;20.10;19.30;;;;;;2253023;61;20413;-65
2022/03/06 07:41:46;0.00;0.00;0.62;0.00;0.00;0.62;2.53;2.30;;;20.10;19.30;;;;;;2253575;61;20700;-64
2022/03/06 07:44:12;0.00;0.00;0.62;0.00;0.00;0.62;3.57;2.80;;;20.10;19.40;;;;;;2253903;61;20486;-68
2022/03/06 07:46:41;0.00;0.00;0.62;0.00;0.00;0.62;3.40;2.20;;;20.10;19.50;;;;;;2253250;61;20463;-66
2022/03/06 07:49:07;0.00;0.00;0.62;0.00;0.00;0.62;2.33;2.13;;;20.00;19.50;;;;;;2253764;61;20364;-64
2022/03/06 07:51:33;0.00;0.00;0.62;0.00;0.00;0.62;3.40;2.57;;;20.00;19.50;;;;;;2253762;61;20356;-65
2022/03/06 07:54:00;0.00;0.00;0.62;0.00;0.00;0.62;2.70;2.40;;;20.10;19.60;;;;;;2253188;61;20403;-68
2022/03/06 07:56:26;0.00;0.00;0.62;0.00;0.00;0.62;2.67;1.93;;;20.00;19.60;;;;;;2253517;61;20380;-67
2022/03/06 07:58:52;0.00;0.00;0.62;0.00;0.00;0.62;2.40;2.13;;;20.00;19.60;;;;;;2253896;61;20357;-62
2022/03/06 08:01:18;0.00;0.00;0.62;0.00;0.00;0.62;3.20;1.93;;;20.10;19.60;;;;;;2253380;61;20412;-64
2022/03/06 08:03:46;0.00;0.00;0.62;0.00;0.00;0.62;2.87;1.93;;;20.00;19.60;;;;;;2253614;61;20450;-67
2022/03/06 08:06:12;0.00;0.00;0.62;0.00;0.00;0.62;3.20;2.13;;;20.00;19.60;;;;;;2253894;61;20416;-67
2022/03/06 08:08:38;0.00;0.00;0.62;0.00;0.00;0.62;2.90;2.40;;;20.00;19.60;;;;;;2253142;61;20713;-66
2022/03/06 08:11:04;0.00;0.00;0.62;0.00;0.00;0.62;2.83;2.50;;;20.00;19.70;;;;;;2253390;61;20357;-65
2022/03/06 08:13:30;0.00;0.00;0.62;0.00;0.00;0.62;2.97;2.30;;;20.00;19.70;;;;;;2253768;61;20453;-64
2022/03/06 08:15:56;0.00;0.00;0.62;0.00;0.00;0.62;2.53;2.10;;;20.00;19.70;;;;;;2253191;61;20428;-65
2022/03/06 08:18:22;0.00;0.00;0.62;0.00;0.00;0.62;3.13;2.30;;;20.00;19.80;;;;;;2253557;61;20368;-66
2022/03/06 08:20:50;0.00;0.00;0.62;0.00;0.00;0.62;2.93;2.00;;;20.10;19.80;;;;;;2253737;61;20648;-62
2022/03/06 08:23:16;0.00;0.00;0.62;0.00;0.00;0.62;2.40;2.13;;;20.00;19.80;;;;;;2253086;61;20383;-62
2022/03/06 08:25:42;0.00;0.00;0.62;0.00;0.00;0.62;2.90;2.37;;;20.00;19.80;;;;;;2253361;61;20381;-63
2022/03/06 08:28:08;0.00;0.00;0.62;0.00;0.00;0.62;2.90;2.20;;;20.00;19.80;;;;;;2253806;61;20356;-65
2022/03/06 08:30:35;0.00;0.00;0.62;0.00;0.00;0.62;3.17;2.30;;;20.00;19.80;;;;;;2253204;61;20617;-64
2022/03/06 08:33:01;0.00;0.00;0.62;0.00;0.00;0.62;2.57;2.20;;;20.00;19.80;;;;;;2253200;61;20447;-66
2022/03/06 08:35:27;0.00;0.00;0.62;0.00;0.00;0.62;3.00;2.20;;;20.10;19.90;;;;;;2253691;61;20578;-65
2022/03/06 08:37:54;0.00;0.00;0.62;0.00;0.00;0.62;3.07;2.53;;;20.00;19.80;;;;;;2253111;61;20361;-67
2022/03/06 08:40:22;0.00;0.00;0.62;0.00;0.00;0.62;3.37;2.17;;;20.10;19.80;;;;;;2253424;61;20581;-67
2022/03/06 08:42:49;0.00;0.00;0.62;0.00;0.00;0.62;3.00;2.70;;;20.10;19.80;;;;;;2253613;61;20388;-64
2022/03/06 08:45:15;0.00;0.00;0.62;0.00;0.00;0.62;3.60;2.20;;;20.10;19.70;;;;;;2253068;61;20381;-65
2022/03/06 08:47:41;0.00;0.00;0.62;0.00;0.00;0.62;2.73;2.40;;;20.10;19.60;;;;;;2253457;61;20359;-62
2022/03/06 08:50:08;0.00;0.00;0.62;0.00;0.00;0.62;3.07;2.60;;;20.10;19.60;;;;;;2253695;61;20436;-65
2022/03/06 08:52:35;0.00;0.00;0.62;0.00;0.00;0.62;2.33;2.03;;;20.10;19.60;;;;;;2252889;61;20380;-65
2022/03/06 08:55:03;0.00;0.00;0.62;0.00;0.00;0.62;3.47;2.67;;;20.10;19.60;;;;;;2253398;61;20406;-65
2022/03/06 08:57:29;0.00;0.00;0.62;0.00;0.00;0.62;3.70;2.33;;;20.10;19.50;;;;;;2253193;61;20443;-66
2022/03/06 08:59:55;0.00;0.00;0.62;0.00;0.00;0.62;2.50;2.10;;;20.10;19.50;;;;;;2253070;61;20404;-63
2022/03/06 09:02:21;0.00;0.00;0.62;0.00;0.00;0.62;2.23;1.90;;;20.10;19.50;;;;;;2253216;61;20388;-65
2022/03/06 09:04:48;0.00;0.00;0.62;0.00;0.00;0.62;3.00;2.20;;;20.10;19.50;;;;;;2253673;61;20702;-62
2022/03/06 09:07:14;0.00;0.00;0.62;0.00;0.00;0.62;2.63;2.00;;;20.00;19.50;;;;;;2252971;61;20352;-63
2022/03/06 09:09:40;0.00;0.00;0.62;0.00;0.00;0.62;2.60;1.90;;;20.10;19.60;;;;;;2252940;61;20645;-63
2022/03/06 09:12:08;0.00;0.00;0.62;0.00;0.00;0.62;3.60;1.87;;;20.10;19.60;;;;;;2253315;61;20372;-62
2022/03/06 09:14:35;0.00;0.00;0.62;0.00;0.00;0.62;2.60;2.00;;;20.10;19.70;;;;;;2253022;61;20682;-64
2022/03/06 09:17:01;0.00;0.00;0.62;0.00;0.00;0.62;2.40;1.70;;;20.10;19.70;;;;;;2253184;61;20356;-64
2022/03/06 09:19:27;0.00;0.00;0.62;0.00;0.00;0.62;2.30;2.10;;;20.10;19.80;;;;;;2253706;61;20697;-63
2022/03/06 09:21:53;0.00;0.00;0.62;0.00;0.00;0.62;2.57;2.03;;;20.10;19.80;;;;;;2253206;61;20721;-63
2022/03/06 09:24:20;0.00;0.00;0.62;0.00;0.00;0.62;2.77;2.03;;;20.10;19.80;;;;;;2253062;61;20357;-64
2022/03/06 09:26:47;0.00;0.00;0.62;0.00;0.00;0.62;2.33;1.97;;;20.10;19.80;;;;;;2253113;61;20380;-63
2022/03/06 09:29:14;0.00;0.00;0.62;0.00;0.00;0.62;4.23;2.10;;;20.10;19.90;;;;;;2253179;61;20403;-66
2022/03/06 09:31:40;0.00;0.00;0.62;0.00;0.00;0.62;2.30;1.57;;;20.10;19.90;;;;;;2252839;61;20403;-65
2022/03/06 09:34:07;0.00;0.00;0.62;0.00;0.00;0.62;2.33;1.57;;;20.10;20.00;;;;;;2253672;61;20701;-64
2022/03/06 09:36:33;0.00;0.00;0.62;0.00;0.00;0.62;2.00;1.50;;;20.10;20.00;;;;;;2253162;61;20425;-65
2022/03/06 09:38:59;0.00;0.00;0.62;0.00;0.00;0.62;2.33;1.83;;;20.10;20.00;;;;;;2252977;61;20713;-61